Time;durP1;ratioP1;P1;durP2;ratioP2;P2;SDS_P1;SDS_P2;PMS_P1;PMS_P2;Temp;Humidity;BMP_temperature;BMP_pressure;BME280_temperature;BME280_humidity;BME280_pressure;Samples;Min_cycle;Max_cycle;Signal;HPM_P1;HPM_P2
2021/10/14 00:02:17;;;;;;;1.90;1.30;;;;;;;;;;5106815;28;20451;-80
2021/10/14 00:04:44;;;;;;;1.40;0.83;;;;;;;;;;5107618;28;20728;-80
2021/10/14 00:07:10;;;;;;;1.67;0.90;;;;;;;;;;5107610;28;20490;-80
2021/10/14 00:09:37;;;;;;;1.83;1.13;;;;;;;;;;5107268;28;20482;-80
2021/10/14 00:12:05;;;;;;;2.03;1.07;;;;;;;;;;5107894;28;20452;-79
2021/10/14 00:14:32;;;;;;;2.43;1.00;;;;;;;;;;5105431;28;20550;-80
2021/10/14 00:17:00;;;;;;;2.53;1.90;;;;;;;;;;5108319;28;20448;-78
2021/10/14 00:19:27;;;;;;;2.00;1.13;;;;;;;;;;5107594;28;20483;-80
2021/10/14 00:21:54;;;;;;;2.40;1.00;;;;;;;;;;5107559;28;20436;-80
2021/10/14 00:24:20;;;;;;;1.73;1.00;;;;;;;;;;5107005;28;20563;-79
2021/10/14 00:26:47;;;;;;;1.37;0.73;;;;;;;;;;5106794;28;20475;-80
2021/10/14 00:29:14;;;;;;;1.80;1.03;;;;;;;;;;5107123;28;20534;-80
2021/10/14 00:31:41;;;;;;;1.23;0.70;;;;;;;;;;5107190;28;20511;-80
2021/10/14 00:34:09;;;;;;;1.60;0.83;;;;;;;;;;5106613;28;20760;-80
2021/10/14 00:36:36;;;;;;;1.37;0.83;;;;;;;;;;5108182;27;20471;-79
2021/10/14 00:39:03;;;;;;;1.40;0.93;;;;;;;;;;5105685;28;20480;-80
2021/10/14 00:41:30;;;;;;;2.07;1.10;;;;;;;;;;5106797;28;20452;-80
2021/10/14 00:43:58;;;;;;;2.00;1.07;;;;;;;;;;5106700;28;20466;-80
2021/10/14 00:46:25;;;;;;;3.30;1.40;;;;;;;;;;5105715;28;20440;-80
2021/10/14 00:48:52;;;;;;;1.83;1.10;;;;;;;;;;5106817;28;20538;-79
2021/10/14 00:51:20;;;;;;;1.80;1.23;;;;;;;;;;5106270;28;20451;-80
2021/10/14 00:53:47;;;;;;;3.40;2.10;;;;;;;;;;5106625;28;20616;-80
2021/10/14 00:56:14;;;;;;;3.70;1.80;;;;;;;;;;5106749;28;20503;-79
2021/10/14 00:58:42;;;;;;;2.97;1.93;;;;;;;;;;5106025;28;20523;-79
2021/10/14 01:01:09;;;;;;;2.70;1.47;;;;;;;;;;5107277;28;20454;-80
2021/10/14 01:03:36;;;;;;;3.20;2.40;;;;;;;;;;5107770;28;20476;-80
2021/10/14 01:06:03;;;;;;;2.93;1.93;;;;;;;;;;5105113;28;20551;-80
2021/10/14 01:08:31;;;;;;;4.33;2.80;;;;;;;;;;5107355;28;20547;-80
2021/10/14 01:10:58;;;;;;;4.10;2.47;;;;;;;;;;5106088;28;20478;-79
2021/10/14 01:13:24;;;;;;;4.67;3.10;;;;;;;;;;5107064;28;20739;-79
2021/10/14 01:15:51;;;;;;;3.57;2.60;;;;;;;;;;5105296;28;20537;-79
2021/10/14 01:18:19;;;;;;;3.60;2.73;;;;;;;;;;5101566;28;20522;-78
2021/10/14 01:20:46;;;;;;;4.30;2.70;;;;;;;;;;5105726;28;20471;-79
2021/10/14 01:23:13;;;;;;;2.90;1.90;;;;;;;;;;5105607;28;20506;-79
2021/10/14 01:25:40;;;;;;;4.57;3.20;;;;;;;;;;5105749;28;20507;-79
2021/10/14 01:28:07;;;;;;;6.13;2.90;;;;;;;;;;5105962;28;20510;-78
2021/10/14 01:30:34;;;;;;;4.13;2.40;;;;;;;;;;5105180;28;20444;-79
2021/10/14 01:33:01;;;;;;;5.50;2.90;;;;;;;;;;5105514;28;20448;-79
2021/10/14 01:35:28;;;;;;;5.67;3.60;;;;;;;;;;5103628;28;20451;-80
2021/10/14 01:37:56;;;;;;;3.77;2.50;;;;;;;;;;5103950;28;20478;-79
2021/10/14 01:40:23;;;;;;;5.13;2.13;;;;;;;;;;5103226;28;20499;-79
2021/10/14 01:42:50;;;;;;;6.70;2.50;;;;;;;;;;5102019;28;20489;-78
2021/10/14 01:45:17;;;;;;;4.03;2.80;;;;;;;;;;5088287;28;20860;-79
2021/10/14 01:47:44;;;;;;;4.10;2.40;;;;;;;;;;5084668;28;20544;-79
2021/10/14 01:50:11;;;;;;;4.20;3.17;;;;;;;;;;5088422;28;20468;-79
2021/10/14 01:52:38;;;;;;;3.60;3.03;;;;;;;;;;5089540;28;20480;-79
2021/10/14 01:55:07;;;;;;;7.30;3.70;;;;;;;;;;5089254;28;20986;-79
2021/10/14 01:57:34;;;;;;;5.13;3.17;;;;;;;;;;5090990;28;20452;-79
2021/10/14 02:00:01;;;;;;;6.70;4.90;;;;;;;;;;5089279;28;20444;-80
2021/10/14 02:02:28;;;;;;;6.07;3.90;;;;;;;;;;5090316;28;20516;-79
2021/10/14 02:04:55;;;;;;;7.57;4.23;;;;;;;;;;5089380;28;20452;-79
2021/10/14 02:07:22;;;;;;;6.20;4.87;;;;;;;;;;5089107;28;20476;-78
2021/10/14 02:09:49;;;;;;;6.07;3.87;;;;;;;;;;5088833;28;20482;-80
2021/10/14 02:12:17;;;;;;;7.10;5.30;;;;;;;;;;5088463;28;20560;-80
2021/10/14 02:14:43;;;;;;;8.50;5.03;;;;;;;;;;5090178;28;20447;-80
2021/10/14 02:17:10;;;;;;;7.33;5.57;;;;;;;;;;5088948;28;20448;-80
2021/10/14 02:19:37;;;;;;;7.57;4.80;;;;;;;;;;5088557;28;20815;-80
2021/10/14 02:22:04;;;;;;;8.87;5.83;;;;;;;;;;5088860;28;20451;-80
2021/10/14 02:24:31;;;;;;;11.70;7.10;;;;;;;;;;5089455;28;20457;-80
2021/10/14 02:26:58;;;;;;;10.87;7.47;;;;;;;;;;5088182;28;20920;-80
2021/10/14 02:29:26;;;;;;;13.67;6.77;;;;;;;;;;5087951;28;20456;-80
2021/10/14 02:31:54;;;;;;;11.40;6.70;;;;;;;;;;5085721;28;20516;-80
2021/10/14 02:34:21;;;;;;;9.13;6.23;;;;;;;;;;5087347;28;20460;-80
2021/10/14 02:36:48;;;;;;;10.80;7.83;;;;;;;;;;5088299;28;20475;-80
2021/10/14 02:39:15;;;;;;;10.47;7.20;;;;;;;;;;5086963;28;20554;-80
2021/10/14 02:41:42;;;;;;;13.10;8.23;;;;;;;;;;5087116;28;20455;-80
2021/10/14 02:44:09;;;;;;;11.50;8.20;;;;;;;;;;5088886;28;20636;-80
2021/10/14 02:46:37;;;;;;;11.87;8.20;;;;;;;;;;5087577;28;20464;-80
2021/10/14 02:49:04;;;;;;;11.53;7.67;;;;;;;;;;5088843;28;20543;-80
2021/10/14 02:51:31;;;;;;;16.17;9.63;;;;;;;;;;5087633;28;20914;-80
2021/10/14 02:53:58;;;;;;;14.00;9.30;;;;;;;;;;5088214;28;20918;-80
2021/10/14 02:56:25;;;;;;;13.37;8.67;;;;;;;;;;5087448;28;20451;-80
2021/10/14 02:58:52;;;;;;;15.03;8.47;;;;;;;;;;5087679;28;20565;-79
2021/10/14 03:01:19;;;;;;;15.83;9.67;;;;;;;;;;5087466;28;20479;-80
2021/10/14 03:03:47;;;;;;;13.70;9.60;;;;;;;;;;5088216;28;20475;-80
2021/10/14 03:06:13;;;;;;;14.40;9.80;;;;;;;;;;5087971;28;20516;-80
2021/10/14 03:08:40;;;;;;;15.13;8.30;;;;;;;;;;5087219;28;20524;-80
2021/10/14 03:11:07;;;;;;;13.53;9.43;;;;;;;;;;5087416;28;20475;-80
2021/10/14 03:13:34;;;;;;;15.63;10.43;;;;;;;;;;5087416;28;20779;-80
2021/10/14 03:16:04;;;;;;;14.27;9.73;;;;;;;;;;5086428;28;20440;-80
2021/10/14 03:18:31;;;;;;;13.63;9.50;;;;;;;;;;5086644;28;20880;-79
2021/10/14 03:20:58;;;;;;;14.53;9.17;;;;;;;;;;5086264;28;20835;-80
2021/10/14 03:23:26;;;;;;;15.20;9.87;;;;;;;;;;5085957;28;20471;-80
2021/10/14 03:25:53;;;;;;;13.80;8.90;;;;;;;;;;5084475;28;20871;-81
2021/10/14 03:28:20;;;;;;;13.73;8.70;;;;;;;;;;5083635;28;20560;-80
2021/10/14 03:30:47;;;;;;;13.87;8.90;;;;;;;;;;5084482;28;20880;-79
2021/10/14 03:33:14;;;;;;;12.70;8.80;;;;;;;;;;5083706;28;20551;-80
2021/10/14 03:35:41;;;;;;;15.33;11.00;;;;;;;;;;5082806;28;20455;-80
2021/10/14 03:38:08;;;;;;;12.87;8.60;;;;;;;;;;5084411;28;20819;-81
2021/10/14 03:40:35;;;;;;;15.40;10.30;;;;;;;;;;5085199;28;20452;-80
2021/10/14 03:43:02;;;;;;;14.33;10.07;;;;;;;;;;5085683;28;20502;-80
2021/10/14 03:45:29;;;;;;;15.80;9.20;;;;;;;;;;5084923;28;20512;-80
2021/10/14 03:47:56;;;;;;;12.40;8.10;;;;;;;;;;5082028;28;20924;-81
2021/10/14 03:50:23;;;;;;;16.27;9.40;;;;;;;;;;5086386;28;20446;-81
2021/10/14 03:52:50;;;;;;;15.50;8.93;;;;;;;;;;5085563;28;20648;-80
2021/10/14 03:55:18;;;;;;;13.90;9.23;;;;;;;;;;5085833;28;20480;-80
2021/10/14 03:57:45;;;;;;;15.17;10.13;;;;;;;;;;5086774;28;20492;-81
2021/10/14 04:00:13;;;;;;;16.37;10.10;;;;;;;;;;5085925;28;20472;-81
2021/10/14 04:02:40;;;;;;;16.10;9.70;;;;;;;;;;5086352;28;20448;-81
2021/10/14 04:05:07;;;;;;;15.67;9.07;;;;;;;;;;5086337;28;20467;-81
2021/10/14 04:07:34;;;;;;;16.37;10.70;;;;;;;;;;5085546;28;20967;-80
2021/10/14 04:10:01;;;;;;;14.07;8.90;;;;;;;;;;5086038;28;20463;-79
2021/10/14 04:12:29;;;;;;;16.43;9.60;;;;;;;;;;5086292;28;20476;-80
2021/10/14 04:14:56;;;;;;;14.10;9.37;;;;;;;;;;5084795;28;20491;-81
2021/10/14 04:17:22;;;;;;;17.20;9.47;;;;;;;;;;5084823;28;20521;-81
2021/10/14 04:19:49;;;;;;;14.40;7.93;;;;;;;;;;5085487;28;20503;-80
2021/10/14 04:22:16;;;;;;;12.30;6.20;;;;;;;;;;5086412;28;20449;-79
2021/10/14 04:24:45;;;;;;;13.60;7.33;;;;;;;;;;5085573;28;20496;-80
2021/10/14 04:27:12;;;;;;;13.80;7.70;;;;;;;;;;5085271;28;20459;-80
2021/10/14 04:29:40;;;;;;;12.60;6.47;;;;;;;;;;5085885;28;20525;-79
2021/10/14 04:32:08;;;;;;;8.10;5.13;;;;;;;;;;5085125;28;20487;-80
2021/10/14 04:34:35;;;;;;;9.07;5.17;;;;;;;;;;5085143;28;20455;-80
2021/10/14 04:37:02;;;;;;;9.47;5.47;;;;;;;;;;5086648;28;20502;-80
2021/10/14 04:39:29;;;;;;;8.80;5.53;;;;;;;;;;5084418;28;20480;-80
2021/10/14 04:41:56;;;;;;;7.13;4.13;;;;;;;;;;5086462;28;20468;-80
2021/10/14 04:44:24;;;;;;;6.93;4.50;;;;;;;;;;5085642;28;20518;-78
2021/10/14 04:46:52;;;;;;;5.50;3.10;;;;;;;;;;5087470;28;20453;-81
2021/10/14 04:49:19;;;;;;;7.83;3.77;;;;;;;;;;5086039;28;20553;-81
2021/10/14 04:51:47;;;;;;;4.60;2.50;;;;;;;;;;5086346;28;20606;-80
2021/10/14 04:54:14;;;;;;;3.60;2.33;;;;;;;;;;5082968;28;20452;-81
2021/10/14 04:56:41;;;;;;;4.53;3.10;;;;;;;;;;5085528;28;20453;-81
2021/10/14 04:59:08;;;;;;;5.27;3.40;;;;;;;;;;5083600;28;20868;-79
2021/10/14 05:01:35;;;;;;;3.97;2.63;;;;;;;;;;5080575;28;20487;-81
2021/10/14 05:04:02;;;;;;;3.90;3.13;;;;;;;;;;5084575;28;20449;-80
2021/10/14 05:06:29;;;;;;;5.80;3.13;;;;;;;;;;5082730;28;20524;-79
2021/10/14 05:08:57;;;;;;;4.43;3.33;;;;;;;;;;5082237;28;20504;-78
2021/10/14 05:11:24;;;;;;;3.87;2.77;;;;;;;;;;5083687;28;20462;-80
2021/10/14 05:13:51;;;;;;;4.40;2.40;;;;;;;;;;5083871;28;20488;-80
2021/10/14 05:16:18;;;;;;;5.33;3.00;;;;;;;;;;5084570;28;20551;-79
2021/10/14 05:18:45;;;;;;;4.10;2.70;;;;;;;;;;5080613;28;20484;-80
2021/10/14 05:21:12;;;;;;;4.03;3.00;;;;;;;;;;5081321;28;20509;-80
2021/10/14 05:23:40;;;;;;;4.23;2.33;;;;;;;;;;5080714;28;20448;-81
2021/10/14 05:26:07;;;;;;;5.07;2.73;;;;;;;;;;5080225;28;20523;-81
2021/10/14 05:28:34;;;;;;;3.27;2.07;;;;;;;;;;5080279;28;20873;-80
2021/10/14 05:31:01;;;;;;;4.20;2.40;;;;;;;;;;5079870;28;20456;-81
2021/10/14 05:33:28;;;;;;;5.13;3.20;;;;;;;;;;5080240;28;20480;-80
2021/10/14 05:35:55;;;;;;;8.47;5.33;;;;;;;;;;5080937;28;20453;-80
2021/10/14 05:38:23;;;;;;;8.33;5.17;;;;;;;;;;5077693;28;20478;-80
2021/10/14 05:40:50;;;;;;;7.47;4.03;;;;;;;;;;5080196;28;20475;-78
2021/10/14 05:43:17;;;;;;;13.13;6.20;;;;;;;;;;5086769;28;20448;-78
2021/10/14 05:45:44;;;;;;;12.20;6.00;;;;;;;;;;5098572;28;20536;-81
2021/10/14 05:48:11;;;;;;;13.47;7.33;;;;;;;;;;5101140;28;20522;-80
2021/10/14 05:50:38;;;;;;;11.83;4.90;;;;;;;;;;5096838;28;20548;-80
2021/10/14 05:53:05;;;;;;;13.23;6.20;;;;;;;;;;5098305;28;20562;-81
2021/10/14 05:55:33;;;;;;;10.40;6.70;;;;;;;;;;5097075;28;20451;-80
2021/10/14 05:58:00;;;;;;;11.70;7.40;;;;;;;;;;5098950;28;20546;-80
2021/10/14 06:00:27;;;;;;;11.63;7.73;;;;;;;;;;5100813;28;20462;-80
2021/10/14 06:02:54;;;;;;;9.77;5.53;;;;;;;;;;5100249;28;20939;-80
2021/10/14 06:05:21;;;;;;;11.77;7.07;;;;;;;;;;5099402;28;20538;-81
2021/10/14 06:07:49;;;;;;;22.10;8.50;;;;;;;;;;5099000;28;20476;-82
2021/10/14 06:10:16;;;;;;;13.97;7.77;;;;;;;;;;5098784;28;20458;-80
2021/10/14 06:12:44;;;;;;;16.80;8.83;;;;;;;;;;5099953;28;21010;-80
2021/10/14 06:15:11;;;;;;;16.83;9.93;;;;;;;;;;5099557;28;20475;-81
2021/10/14 06:17:38;;;;;;;16.83;9.50;;;;;;;;;;5100116;28;20532;-79
2021/10/14 06:20:05;;;;;;;12.10;8.20;;;;;;;;;;5097350;28;20530;-79
2021/10/14 06:22:32;;;;;;;23.90;12.80;;;;;;;;;;5099876;28;20616;-80
2021/10/14 06:24:59;;;;;;;26.40;11.70;;;;;;;;;;5099676;28;20528;-81
2021/10/14 06:27:26;;;;;;;16.40;9.80;;;;;;;;;;5100932;28;20482;-80
2021/10/14 06:29:56;;;;;;;16.97;8.13;;;;;;;;;;5100854;28;20487;-79
2021/10/14 06:32:23;;;;;;;15.70;10.17;;;;;;;;;;5101421;28;20510;-80
2021/10/14 06:34:50;;;;;;;15.83;9.00;;;;;;;;;;5102472;28;20490;-81
2021/10/14 06:37:17;;;;;;;18.40;11.17;;;;;;;;;;5105217;28;20451;-80
2021/10/14 06:39:44;;;;;;;13.30;8.77;;;;;;;;;;5104610;28;20467;-80
2021/10/14 06:42:10;;;;;;;12.17;7.43;;;;;;;;;;5104978;28;20440;-81
2021/10/14 06:44:38;;;;;;;17.00;10.00;;;;;;;;;;5104491;28;20470;-81
2021/10/14 06:47:09;;;;;;;15.50;9.50;;;;;;;;;;5105354;28;20439;-81
2021/10/14 06:49:37;;;;;;;14.47;7.60;;;;;;;;;;5104690;28;20497;-80
2021/10/14 06:52:04;;;;;;;16.20;9.07;;;;;;;;;;5106423;28;20541;-81
2021/10/14 06:54:31;;;;;;;16.53;8.00;;;;;;;;;;5105440;28;20476;-81
2021/10/14 06:57:02;;;;;;;11.00;6.90;;;;;;;;;;5103884;28;20432;-80
2021/10/14 06:59:29;;;;;;;13.27;7.50;;;;;;;;;;5104843;28;20476;-81
2021/10/14 07:01:57;;;;;;;11.37;7.27;;;;;;;;;;5103907;28;20448;-80
2021/10/14 07:04:25;;;;;;;11.50;7.83;;;;;;;;;;5105079;28;20503;-80
2021/10/14 07:06:52;;;;;;;12.73;6.40;;;;;;;;;;5106104;28;21026;-81
2021/10/14 07:09:19;;;;;;;12.97;6.67;;;;;;;;;;5105380;28;20966;-80
2021/10/14 07:11:53;;;;;;;10.77;6.00;;;;;;;;;;5103783;28;20452;-81
2021/10/14 07:14:20;;;;;;;15.87;6.00;;;;;;;;;;5104320;28;20741;-80
2021/10/14 07:16:47;;;;;;;8.77;5.00;;;;;;;;;;5107874;28;20770;-79
2021/10/14 07:19:15;;;;;;;8.77;5.07;;;;;;;;;;5106974;28;20487;-80
2021/10/14 07:21:43;;;;;;;12.93;6.83;;;;;;;;;;5109516;28;20466;-80
2021/10/14 07:24:10;;;;;;;6.90;5.20;;;;;;;;;;5110271;28;20461;-79
2021/10/14 07:26:37;;;;;;;10.23;7.90;;;;;;;;;;5111172;28;20466;-79
2021/10/14 07:29:05;;;;;;;10.13;6.17;;;;;;;;;;5109612;28;20487;-79
2021/10/14 07:31:32;;;;;;;8.17;6.03;;;;;;;;;;5110393;28;20448;-80
2021/10/14 07:33:59;;;;;;;8.63;5.47;;;;;;;;;;5107846;28;20510;-79
2021/10/14 07:36:28;;;;;;;7.40;5.47;;;;;;;;;;5107358;28;20440;-79
2021/10/14 07:38:58;;;;;;;11.40;7.33;;;;;;;;;;5107352;28;20474;-79
2021/10/14 07:41:25;;;;;;;9.70;5.97;;;;;;;;;;5106709;28;20480;-80
2021/10/14 07:43:52;;;;;;;11.43;5.83;;;;;;;;;;5104838;28;20452;-80
2021/10/14 07:46:20;;;;;;;14.13;6.70;;;;;;;;;;5103949;28;20493;-80
2021/10/14 07:48:47;;;;;;;8.90;6.20;;;;;;;;;;5104216;28;20958;-80
2021/10/14 07:51:14;;;;;;;6.13;5.20;;;;;;;;;;5104847;28;20447;-79
2021/10/14 07:53:42;;;;;;;12.60;5.70;;;;;;;;;;5102166;28;20448;-80
2021/10/14 07:56:09;;;;;;;8.40;5.83;;;;;;;;;;5101740;28;20447;-79
2021/10/14 07:58:36;;;;;;;9.70;5.87;;;;;;;;;;5104345;28;20483;-79
2021/10/14 08:01:03;;;;;;;12.43;6.73;;;;;;;;;;5104157;28;20456;-80
2021/10/14 08:03:30;;;;;;;9.60;6.90;;;;;;;;;;5101180;28;20845;-80
2021/10/14 08:05:58;;;;;;;6.90;5.47;;;;;;;;;;5104476;28;20460;-80
2021/10/14 08:08:26;;;;;;;12.17;6.60;;;;;;;;;;5105321;28;20551;-80
2021/10/14 08:10:54;;;;;;;10.17;5.40;;;;;;;;;;5101211;28;20470;-80
2021/10/14 08:13:22;;;;;;;7.97;5.77;;;;;;;;;;5103012;28;20448;-84
2021/10/14 08:15:50;;;;;;;13.60;5.33;;;;;;;;;;5096364;28;20459;-79
2021/10/14 08:18:17;;;;;;;8.90;4.67;;;;;;;;;;5095923;28;20449;-80
2021/10/14 08:20:44;;;;;;;10.70;5.87;;;;;;;;;;5078901;28;20679;-79
2021/10/14 08:23:11;;;;;;;11.60;5.70;;;;;;;;;;5095904;28;20557;-80
2021/10/14 08:25:38;;;;;;;11.97;5.93;;;;;;;;;;5104055;28;20470;-78
2021/10/14 08:28:08;;;;;;;12.90;6.80;;;;;;;;;;5093190;28;20506;-79
2021/10/14 08:30:39;;;;;;;13.63;7.10;;;;;;;;;;5092760;28;20456;-80
2021/10/14 08:33:06;;;;;;;9.40;6.90;;;;;;;;;;5099926;28;20551;-80
2021/10/14 08:35:36;;;;;;;10.00;7.80;;;;;;;;;;5090586;28;20460;-78
2021/10/14 08:38:03;;;;;;;10.50;7.13;;;;;;;;;;5097225;28;20534;-77
2021/10/14 08:40:30;;;;;;;14.53;7.70;;;;;;;;;;5083691;28;20471;-79
2021/10/14 08:43:00;;;;;;;17.50;9.73;;;;;;;;;;5090531;28;20934;-79
2021/10/14 08:45:27;;;;;;;8.90;7.13;;;;;;;;;;5090238;28;20832;-79
2021/10/14 08:47:56;;;;;;;13.40;6.37;;;;;;;;;;5097018;28;20479;-79
2021/10/14 08:50:23;;;;;;;11.90;7.00;;;;;;;;;;5097803;28;20495;-80
2021/10/14 08:52:50;;;;;;;11.40;6.43;;;;;;;;;;5098406;28;20467;-79
2021/10/14 08:55:18;;;;;;;9.40;5.90;;;;;;;;;;5101822;28;20460;-79
2021/10/14 08:57:45;;;;;;;7.80;6.13;;;;;;;;;;5098702;28;20448;-79
2021/10/14 09:00:13;;;;;;;9.27;5.93;;;;;;;;;;5099637;28;20880;-80
2021/10/14 09:02:42;;;;;;;9.60;5.80;;;;;;;;;;5098837;28;20955;-78
2021/10/14 09:05:14;;;;;;;7.87;4.70;;;;;;;;;;5100497;28;20523;-80
2021/10/14 09:07:41;;;;;;;8.77;6.53;;;;;;;;;;5102105;28;20502;-80
2021/10/14 09:10:12;;;;;;;7.37;5.80;;;;;;;;;;5102727;28;20455;-78
2021/10/14 09:12:45;;;;;;;6.57;4.77;;;;;;;;;;5102398;28;20470;-80
2021/10/14 09:15:18;;;;;;;7.17;4.33;;;;;;;;;;5095230;28;20464;-81
2021/10/14 09:17:49;;;;;;;5.67;4.37;;;;;;;;;;5084710;28;20802;-79
2021/10/14 09:20:30;;;;;;;7.00;3.87;;;;;;;;;;5098107;28;20552;-81
2021/10/14 09:23:01;;;;;;;6.23;3.80;;;;;;;;;;5097553;28;20448;-79
2021/10/14 09:25:29;;;;;;;8.27;3.90;;;;;;;;;;5104599;28;20520;-79
2021/10/14 09:28:05;;;;;;;8.60;5.23;;;;;;;;;;5105492;28;20470;-78
2021/10/14 09:30:32;;;;;;;6.07;3.60;;;;;;;;;;5104306;28;20471;-80
2021/10/14 09:32:59;;;;;;;7.63;3.30;;;;;;;;;;5105183;28;20859;-78
2021/10/14 09:35:27;;;;;;;4.40;3.10;;;;;;;;;;5097525;28;20669;-78
2021/10/14 09:37:54;;;;;;;4.10;3.07;;;;;;;;;;5087378;28;20463;-79
2021/10/14 09:40:27;;;;;;;6.77;4.07;;;;;;;;;;5081454;28;20554;-79
2021/10/14 09:43:00;;;;;;;4.10;2.87;;;;;;;;;;5080750;28;20456;-79
2021/10/14 09:45:30;;;;;;;5.00;3.07;;;;;;;;;;5082226;28;20460;-79
2021/10/14 09:48:08;;;;;;;4.90;2.67;;;;;;;;;;5081045;28;20572;-80
2021/10/14 09:50:44;;;;;;;6.00;3.63;;;;;;;;;;5096133;28;20906;-78
2021/10/14 09:53:19;;;;;;;3.10;2.30;;;;;;;;;;5105287;28;20499;-82
2021/10/14 09:55:48;;;;;;;4.27;2.20;;;;;;;;;;5101702;28;20709;-80
2021/10/14 10:01:12;;;;;;;4.87;1.80;;;;;;;;;;5078543;28;20460;-79
2021/10/14 10:03:44;;;;;;;4.53;2.60;;;;;;;;;;5088944;28;20460;-80
2021/10/14 10:06:17;;;;;;;2.80;1.77;;;;;;;;;;5092998;28;20470;-81
2021/10/14 10:08:51;;;;;;;4.37;2.53;;;;;;;;;;5088058;28;20895;-80
2021/10/14 10:11:23;;;;;;;4.20;2.73;;;;;;;;;;5085332;28;20461;-80
2021/10/14 10:13:55;;;;;;;4.43;3.67;;;;;;;;;;5108632;28;20761;-79
2021/10/14 10:16:23;;;;;;;7.00;4.43;;;;;;;;;;5104820;27;20504;-79
2021/10/14 10:19:28;;;;;;;7.20;4.70;;;;;;;;;;5112658;27;20451;-80
2021/10/14 10:21:56;;;;;;;5.33;4.13;;;;;;;;;;5102763;28;20485;-79
2021/10/14 10:24:30;;;;;;;15.77;7.27;;;;;;;;;;5107952;28;20466;-78
2021/10/14 10:26:58;;;;;;;8.60;6.20;;;;;;;;;;5125978;27;20446;-78
2021/10/14 10:29:38;;;;;;;9.17;6.27;;;;;;;;;;5111589;28;20535;-80
2021/10/14 10:32:27;;;;;;;8.00;5.90;;;;;;;;;;5092144;28;20565;-80
2021/10/14 10:35:05;;;;;;;9.43;6.37;;;;;;;;;;5099003;28;20539;-78
2021/10/14 10:37:40;;;;;;;10.50;7.10;;;;;;;;;;5105014;28;20439;-80
2021/10/14 10:40:16;;;;;;;9.23;7.60;;;;;;;;;;5103812;28;21010;-81
2021/10/14 10:42:45;;;;;;;8.33;5.70;;;;;;;;;;5096566;28;20933;-81
2021/10/14 10:45:13;;;;;;;10.83;7.50;;;;;;;;;;5102552;28;20565;-80
2021/10/14 10:47:44;;;;;;;9.03;6.00;;;;;;;;;;5100778;28;20483;-81
2021/10/14 10:50:13;;;;;;;11.23;7.50;;;;;;;;;;5092968;28;21053;-80
2021/10/14 10:52:46;;;;;;;9.40;5.83;;;;;;;;;;5112128;27;20460;-80
2021/10/14 10:55:15;;;;;;;9.40;7.10;;;;;;;;;;5105933;28;20514;-80
2021/10/14 10:57:46;;;;;;;13.00;10.20;;;;;;;;;;5100249;27;20898;-80
2021/10/14 11:00:18;;;;;;;11.63;6.60;;;;;;;;;;5094852;28;20465;-79
2021/10/14 11:02:45;;;;;;;9.83;7.00;;;;;;;;;;5101767;28;20517;-81
2021/10/14 11:05:15;;;;;;;7.90;5.60;;;;;;;;;;5100455;28;20502;-81
2021/10/14 11:08:05;;;;;;;6.17;4.90;;;;;;;;;;5088112;28;20468;-81
2021/10/14 11:10:32;;;;;;;10.07;7.50;;;;;;;;;;5087414;28;20453;-80
2021/10/14 11:13:00;;;;;;;10.73;7.53;;;;;;;;;;5095390;28;20483;-79
2021/10/14 11:15:28;;;;;;;7.00;3.97;;;;;;;;;;5106598;28;20458;-80
2021/10/14 11:18:00;;;;;;;7.00;5.57;;;;;;;;;;5099819;28;20464;-80
2021/10/14 11:20:28;;;;;;;10.40;6.43;;;;;;;;;;5086902;28;20485;-80
2021/10/14 11:23:02;;;;;;;8.53;6.00;;;;;;;;;;5107149;28;20798;-80
2021/10/14 11:25:29;;;;;;;11.03;7.23;;;;;;;;;;5101066;28;20748;-80
2021/10/14 11:28:03;;;;;;;7.27;5.53;;;;;;;;;;5107055;28;20783;-80
2021/10/14 11:30:38;;;;;;;12.10;7.30;;;;;;;;;;5119111;27;20445;-80
2021/10/14 11:33:11;;;;;;;7.33;6.53;;;;;;;;;;5104497;28;20886;-79
2021/10/14 11:35:38;;;;;;;8.70;6.97;;;;;;;;;;5089266;28;20453;-80
2021/10/14 11:38:10;;;;;;;10.10;7.07;;;;;;;;;;5095173;28;20455;-79
2021/10/14 11:40:38;;;;;;;9.37;6.73;;;;;;;;;;5086461;28;20448;-78
2021/10/14 11:43:05;;;;;;;9.83;7.00;;;;;;;;;;5095270;28;20754;-81
2021/10/14 11:45:32;;;;;;;7.13;6.03;;;;;;;;;;5101077;28;20448;-80
2021/10/14 11:47:59;;;;;;;8.07;7.20;;;;;;;;;;5089589;28;20461;-80
2021/10/14 11:50:32;;;;;;;10.67;7.53;;;;;;;;;;5088284;28;20453;-79
2021/10/14 11:53:08;;;;;;;8.70;7.10;;;;;;;;;;5106172;28;20860;-81
2021/10/14 11:55:36;;;;;;;6.20;4.47;;;;;;;;;;5099431;28;20500;-81
2021/10/14 11:58:03;;;;;;;8.17;5.90;;;;;;;;;;5103139;28;20471;-79
2021/10/14 12:00:32;;;;;;;9.97;6.90;;;;;;;;;;5101246;28;20591;-78
2021/10/14 12:02:59;;;;;;;7.10;6.23;;;;;;;;;;5103142;28;20452;-79
2021/10/14 12:05:27;;;;;;;7.30;6.20;;;;;;;;;;5101375;28;20460;-82
2021/10/14 12:07:56;;;;;;;8.93;5.20;;;;;;;;;;5095696;28;20560;-80
2021/10/14 12:10:34;;;;;;;6.37;4.27;;;;;;;;;;5097448;28;20452;-81
2021/10/14 12:13:06;;;;;;;6.67;5.30;;;;;;;;;;5092281;28;20460;-81
2021/10/14 12:15:37;;;;;;;5.77;4.03;;;;;;;;;;5107091;28;20443;-81
2021/10/14 12:18:06;;;;;;;4.63;3.80;;;;;;;;;;5105729;28;20452;-78
2021/10/14 12:20:33;;;;;;;6.23;4.10;;;;;;;;;;5098272;28;20452;-82
2021/10/14 12:23:07;;;;;;;10.67;5.43;;;;;;;;;;5092899;28;20498;-79
2021/10/14 12:25:36;;;;;;;6.57;4.63;;;;;;;;;;5104427;28;20459;-81
2021/10/14 12:28:05;;;;;;;7.43;4.30;;;;;;;;;;5096631;28;20833;-80
2021/10/14 12:30:36;;;;;;;5.17;3.80;;;;;;;;;;5100861;28;20459;-79
2021/10/14 12:33:17;;;;;;;7.80;5.17;;;;;;;;;;5097048;28;20715;-81
2021/10/14 12:35:54;;;;;;;7.40;4.97;;;;;;;;;;5085121;28;20444;-80
2021/10/14 12:38:21;;;;;;;8.37;4.97;;;;;;;;;;5093071;28;20460;-81
2021/10/14 12:40:59;;;;;;;7.93;4.83;;;;;;;;;;5101886;28;20462;-82
2021/10/14 12:43:29;;;;;;;9.17;5.07;;;;;;;;;;5099856;28;21528;-81
2021/10/14 12:46:18;;;;;;;11.77;6.17;;;;;;;;;;5099446;28;20895;-79
2021/10/14 12:48:51;;;;;;;7.00;4.50;;;;;;;;;;5088303;28;20564;-79
2021/10/14 12:51:26;;;;;;;9.03;4.80;;;;;;;;;;5081093;28;20445;-80
2021/10/14 12:53:56;;;;;;;5.57;4.07;;;;;;;;;;5081123;28;20448;-80
2021/10/14 12:56:34;;;;;;;3.83;3.20;;;;;;;;;;5088162;28;20452;-80
2021/10/14 12:59:05;;;;;;;5.10;2.93;;;;;;;;;;5082910;28;20448;-82
2021/10/14 13:01:32;;;;;;;2.67;1.90;;;;;;;;;;5083961;28;20501;-80
2021/10/14 13:03:59;;;;;;;4.83;3.00;;;;;;;;;;5092123;28;20454;-79
2021/10/14 13:06:26;;;;;;;5.90;2.93;;;;;;;;;;5095924;28;20883;-79
2021/10/14 13:08:57;;;;;;;3.27;2.53;;;;;;;;;;5098832;28;20487;-81
2021/10/14 13:11:29;;;;;;;4.10;2.40;;;;;;;;;;5100529;28;20455;-78
2021/10/14 13:13:56;;;;;;;4.40;2.30;;;;;;;;;;5101357;28;20450;-78
2021/10/14 13:16:28;;;;;;;10.00;2.67;;;;;;;;;;5096077;28;20879;-82
2021/10/14 13:18:56;;;;;;;7.00;3.23;;;;;;;;;;5093091;28;20454;-82
2021/10/14 13:21:23;;;;;;;4.47;2.83;;;;;;;;;;5102166;28;20444;-80
2021/10/14 13:23:51;;;;;;;4.07;2.93;;;;;;;;;;5100588;28;20511;-81
2021/10/14 13:26:22;;;;;;;7.10;3.87;;;;;;;;;;5106759;28;20444;-78
2021/10/14 13:31:38;;;;;;;5.30;2.80;;;;;;;;;;5099272;28;20436;-79
2021/10/14 13:34:05;;;;;;;6.20;3.60;;;;;;;;;;5102037;28;20447;-81
2021/10/14 13:36:32;;;;;;;8.10;4.00;;;;;;;;;;5106439;28;20507;-78
2021/10/14 13:39:13;;;;;;;4.70;3.33;;;;;;;;;;5103694;28;20447;-79
2021/10/14 13:41:41;;;;;;;4.87;2.80;;;;;;;;;;5114511;28;20506;-78
2021/10/14 13:44:09;;;;;;;6.20;3.40;;;;;;;;;;5114318;28;20451;-80
2021/10/14 13:46:37;;;;;;;13.77;4.40;;;;;;;;;;5107107;28;20916;-80
2021/10/14 13:49:05;;;;;;;5.67;3.57;;;;;;;;;;5105522;28;20755;-80
2021/10/14 13:51:33;;;;;;;6.90;3.50;;;;;;;;;;5092606;28;20455;-80
2021/10/14 13:54:00;;;;;;;6.50;3.77;;;;;;;;;;5106914;28;20485;-80
2021/10/14 13:56:27;;;;;;;4.93;3.83;;;;;;;;;;5103052;28;20441;-79
2021/10/14 13:58:54;;;;;;;6.50;4.63;;;;;;;;;;5101730;28;20471;-81
2021/10/14 14:01:21;;;;;;;8.23;3.27;;;;;;;;;;5115999;28;20450;-79
2021/10/14 14:03:50;;;;;;;7.57;3.70;;;;;;;;;;5104720;28;20448;-80
2021/10/14 14:06:17;;;;;;;9.07;4.67;;;;;;;;;;5102220;28;20573;-79
2021/10/14 14:08:45;;;;;;;12.53;5.03;;;;;;;;;;5102762;28;20484;-79
2021/10/14 14:11:12;;;;;;;6.60;3.50;;;;;;;;;;5086595;28;20452;-79
2021/10/14 14:13:39;;;;;;;8.03;4.27;;;;;;;;;;5099677;28;20863;-80
2021/10/14 14:16:08;;;;;;;5.23;3.30;;;;;;;;;;5104708;28;20533;-79
2021/10/14 14:18:40;;;;;;;9.90;6.20;;;;;;;;;;5100268;28;20461;-80
2021/10/14 14:21:09;;;;;;;5.17;2.80;;;;;;;;;;5105578;28;20454;-79
2021/10/14 14:23:39;;;;;;;5.73;3.43;;;;;;;;;;5109757;28;20479;-80
2021/10/14 14:26:09;;;;;;;8.90;4.53;;;;;;;;;;5102222;28;20517;-80
2021/10/14 14:28:36;;;;;;;4.10;3.27;;;;;;;;;;5102833;28;20516;-80
2021/10/14 14:31:03;;;;;;;6.63;3.20;;;;;;;;;;5101697;28;20472;-80
2021/10/14 14:33:30;;;;;;;4.40;3.50;;;;;;;;;;5094334;28;20459;-80
2021/10/14 14:35:58;;;;;;;5.30;3.77;;;;;;;;;;5100653;28;20506;-80
2021/10/14 14:38:26;;;;;;;6.53;4.10;;;;;;;;;;5101247;28;20766;-80
2021/10/14 14:40:53;;;;;;;4.47;3.20;;;;;;;;;;5090832;28;20467;-79
2021/10/14 14:43:21;;;;;;;8.47;4.53;;;;;;;;;;5104243;28;20458;-81
2021/10/14 14:45:49;;;;;;;7.00;3.97;;;;;;;;;;5102338;28;20455;-80
2021/10/14 14:48:17;;;;;;;6.60;2.97;;;;;;;;;;5102411;28;20487;-78
2021/10/14 14:50:59;;;;;;;4.40;2.60;;;;;;;;;;5104431;28;20440;-78
2021/10/14 14:53:30;;;;;;;5.20;4.10;;;;;;;;;;5099710;28;20459;-80